sensor_id;sensor_type;location;lat;lon;timestamp;temperature;humidity
22633;DHT22;11483;55.828;37.488;2023-09-19T00:01:35;12.10;99.90
22633;DHT22;11483;55.828;37.488;2023-09-19T00:04:01;12.10;99.90
22633;DHT22;11483;55.828;37.488;2023-09-19T00:06:30;12.10;99.90
22633;DHT22;11483;55.828;37.488;2023-09-19T00:08:57;12.10;99.90
22633;DHT22;11483;55.828;37.488;2023-09-19T00:11:26;12.10;99.90
22633;DHT22;11483;55.828;37.488;2023-09-19T00:13:52;12.10;99.90
22633;DHT22;11483;55.828;37.488;2023-09-19T00:16:19;12.10;99.90
22633;DHT22;11483;55.828;37.488;2023-09-19T00:18:45;12.10;99.90
22633;DHT22;11483;55.828;37.488;2023-09-19T00:21:11;12.10;99.90
22633;DHT22;11483;55.828;37.488;2023-09-19T00:23:38;12.00;99.90
22633;DHT22;11483;55.828;37.488;2023-09-19T00:26:06;12.00;99.90
22633;DHT22;11483;55.828;37.488;2023-09-19T00:28:32;12.00;99.90
22633;DHT22;11483;55.828;37.488;2023-09-19T00:30:58;12.10;99.90
22633;DHT22;11483;55.828;37.488;2023-09-19T00:33:27;12.10;99.90
22633;DHT22;11483;55.828;37.488;2023-09-19T00:35:56;12.20;99.90
22633;DHT22;11483;55.828;37.488;2023-09-19T00:38:27;12.20;99.90
22633;DHT22;11483;55.828;37.488;2023-09-19T00:40:54;12.20;99.90
22633;DHT22;11483;55.828;37.488;2023-09-19T00:43:20;12.20;99.90
22633;DHT22;11483;55.828;37.488;2023-09-19T00:45:51;12.20;99.90
22633;DHT22;11483;55.828;37.488;2023-09-19T00:48:20;12.20;99.90
22633;DHT22;11483;55.828;37.488;2023-09-19T00:50:47;12.10;99.90
22633;DHT22;11483;55.828;37.488;2023-09-19T00:53:18;12.10;99.90
22633;DHT22;11483;55.828;37.488;2023-09-19T00:55:45;12.10;99.90
22633;DHT22;11483;55.828;37.488;2023-09-19T00:58:11;12.10;99.90
22633;DHT22;11483;55.828;37.488;2023-09-19T01:00:38;12.10;99.90
22633;DHT22;11483;55.828;37.488;2023-09-19T01:03:05;12.10;99.90
22633;DHT22;11483;55.828;37.488;2023-09-19T01:05:33;12.10;99.90
22633;DHT22;11483;55.828;37.488;2023-09-19T01:07:59;12.10;99.90
22633;DHT22;11483;55.828;37.488;2023-09-19T01:10:25;12.00;99.90
22633;DHT22;11483;55.828;37.488;2023-09-19T01:13:13;12.00;99.90
22633;DHT22;11483;55.828;37.488;2023-09-19T01:18:52;12.00;99.90
22633;DHT22;11483;55.828;37.488;2023-09-19T01:24:40;12.00;99.90
22633;DHT22;11483;55.828;37.488;2023-09-19T01:27:34;12.10;99.90
22633;DHT22;11483;55.828;37.488;2023-09-19T01:30:14;12.10;99.90
22633;DHT22;11483;55.828;37.488;2023-09-19T01:32:40;12.10;99.90
22633;DHT22;11483;55.828;37.488;2023-09-19T01:35:07;12.20;99.90
22633;DHT22;11483;55.828;37.488;2023-09-19T01:37:38;12.20;99.90
22633;DHT22;11483;55.828;37.488;2023-09-19T01:40:07;12.20;99.90
22633;DHT22;11483;55.828;37.488;2023-09-19T01:48:52;12.20;99.90
22633;DHT22;11483;55.828;37.488;2023-09-19T01:51:34;12.20;99.90
22633;DHT22;11483;55.828;37.488;2023-09-19T01:54:05;12.20;99.90
22633;DHT22;11483;55.828;37.488;2023-09-19T01:56:48;12.20;99.90
22633;DHT22;11483;55.828;37.488;2023-09-19T01:59:20;12.20;99.90
22633;DHT22;11483;55.828;37.488;2023-09-19T02:01:48;12.20;99.90
22633;DHT22;11483;55.828;37.488;2023-09-19T02:04:15;12.20;99.90
22633;DHT22;11483;55.828;37.488;2023-09-19T02:06:41;12.10;99.90
22633;DHT22;11483;55.828;37.488;2023-09-19T02:09:07;12.00;99.90
22633;DHT22;11483;55.828;37.488;2023-09-19T02:11:35;12.00;99.90
22633;DHT22;11483;55.828;37.488;2023-09-19T02:14:02;12.00;99.90
22633;DHT22;11483;55.828;37.488;2023-09-19T02:16:30;11.90;99.90
22633;DHT22;11483;55.828;37.488;2023-09-19T02:18:55;11.90;99.90
22633;DHT22;11483;55.828;37.488;2023-09-19T02:21:21;11.80;99.90
22633;DHT22;11483;55.828;37.488;2023-09-19T02:23:47;11.80;99.90
22633;DHT22;11483;55.828;37.488;2023-09-19T02:26:13;11.70;99.90
22633;DHT22;11483;55.828;37.488;2023-09-19T02:28:39;11.70;99.90
22633;DHT22;11483;55.828;37.488;2023-09-19T02:31:05;11.70;99.90
22633;DHT22;11483;55.828;37.488;2023-09-19T02:33:31;11.70;99.90
22633;DHT22;11483;55.828;37.488;2023-09-19T02:35:58;11.60;99.90
22633;DHT22;11483;55.828;37.488;2023-09-19T02:38:27;11.60;99.90
22633;DHT22;11483;55.828;37.488;2023-09-19T02:40:54;11.60;99.90
22633;DHT22;11483;55.828;37.488;2023-09-19T02:43:23;11.60;99.90
22633;DHT22;11483;55.828;37.488;2023-09-19T02:45:51;11.60;99.90
22633;DHT22;11483;55.828;37.488;2023-09-19T02:48:20;11.60;99.90
22633;DHT22;11483;55.828;37.488;2023-09-19T02:50:49;11.60;99.90
22633;DHT22;11483;55.828;37.488;2023-09-19T02:53:15;11.50;99.90
22633;DHT22;11483;55.828;37.488;2023-09-19T02:55:40;11.50;99.90
22633;DHT22;11483;55.828;37.488;2023-09-19T02:58:06;11.50;99.90
22633;DHT22;11483;55.828;37.488;2023-09-19T03:00:39;11.50;99.90
22633;DHT22;11483;55.828;37.488;2023-09-19T03:03:07;11.50;99.90
22633;DHT22;11483;55.828;37.488;2023-09-19T03:05:34;11.60;99.90
22633;DHT22;11483;55.828;37.488;2023-09-19T03:07:59;11.70;99.90
22633;DHT22;11483;55.828;37.488;2023-09-19T03:10:28;11.60;99.90
22633;DHT22;11483;55.828;37.488;2023-09-19T03:12:55;11.70;99.90
22633;DHT22;11483;55.828;37.488;2023-09-19T03:15:21;11.70;99.90
22633;DHT22;11483;55.828;37.488;2023-09-19T03:17:47;11.70;99.90
22633;DHT22;11483;55.828;37.488;2023-09-19T03:20:13;11.70;99.90
22633;DHT22;11483;55.828;37.488;2023-09-19T03:22:39;11.80;99.90
22633;DHT22;11483;55.828;37.488;2023-09-19T03:25:06;11.80;99.90
22633;DHT22;11483;55.828;37.488;2023-09-19T03:27:35;11.80;99.90
22633;DHT22;11483;55.828;37.488;2023-09-19T03:30:01;11.90;99.90
22633;DHT22;11483;55.828;37.488;2023-09-19T03:32:32;11.80;99.90
22633;DHT22;11483;55.828;37.488;2023-09-19T03:34:57;11.90;99.90
22633;DHT22;11483;55.828;37.488;2023-09-19T03:37:23;11.90;99.90
22633;DHT22;11483;55.828;37.488;2023-09-19T03:39:49;12.00;99.90
22633;DHT22;11483;55.828;37.488;2023-09-19T03:42:14;12.00;99.90
22633;DHT22;11483;55.828;37.488;2023-09-19T03:44:40;12.00;99.90
22633;DHT22;11483;55.828;37.488;2023-09-19T03:47:06;12.10;99.90
22633;DHT22;11483;55.828;37.488;2023-09-19T03:49:32;12.10;99.90
22633;DHT22;11483;55.828;37.488;2023-09-19T03:51:59;12.10;99.90
22633;DHT22;11483;55.828;37.488;2023-09-19T03:54:25;12.10;99.90
22633;DHT22;11483;55.828;37.488;2023-09-19T03:56:50;12.10;99.90
22633;DHT22;11483;55.828;37.488;2023-09-19T03:59:16;12.10;99.90
22633;DHT22;11483;55.828;37.488;2023-09-19T04:01:43;12.00;99.90
22633;DHT22;11483;55.828;37.488;2023-09-19T04:04:09;12.00;99.90
22633;DHT22;11483;55.828;37.488;2023-09-19T04:06:35;12.00;99.90
22633;DHT22;11483;55.828;37.488;2023-09-19T04:09:04;12.00;99.90
22633;DHT22;11483;55.828;37.488;2023-09-19T04:11:32;12.00;99.90
22633;DHT22;11483;55.828;37.488;2023-09-19T04:13:58;12.00;99.90
22633;DHT22;11483;55.828;37.488;2023-09-19T04:16:24;12.00;99.90
22633;DHT22;11483;55.828;37.488;2023-09-19T04:18:50;12.00;99.90
22633;DHT22;11483;55.828;37.488;2023-09-19T04:21:16;12.00;99.90
22633;DHT22;11483;55.828;37.488;2023-09-19T04:23:41;12.00;99.90
22633;DHT22;11483;55.828;37.488;2023-09-19T04:26:08;12.00;99.90
22633;DHT22;11483;55.828;37.488;2023-09-19T04:28:34;12.00;99.90
22633;DHT22;11483;55.828;37.488;2023-09-19T04:31:00;12.10;99.90
22633;DHT22;11483;55.828;37.488;2023-09-19T04:33:26;12.20;99.90
22633;DHT22;11483;55.828;37.488;2023-09-19T04:35:55;12.20;99.90
22633;DHT22;11483;55.828;37.488;2023-09-19T04:38:21;12.30;99.90
22633;DHT22;11483;55.828;37.488;2023-09-19T04:40:47;12.40;99.90
22633;DHT22;11483;55.828;37.488;2023-09-19T04:43:13;12.40;99.90
22633;DHT22;11483;55.828;37.488;2023-09-19T04:45:39;12.50;99.90
22633;DHT22;11483;55.828;37.488;2023-09-19T04:48:05;12.60;99.90
22633;DHT22;11483;55.828;37.488;2023-09-19T04:50:34;12.60;99.90
22633;DHT22;11483;55.828;37.488;2023-09-19T04:53:00;12.70;99.90
22633;DHT22;11483;55.828;37.488;2023-09-19T04:55:26;12.70;99.90
22633;DHT22;11483;55.828;37.488;2023-09-19T04:57:52;12.80;99.90
22633;DHT22;11483;55.828;37.488;2023-09-19T05:00:21;12.80;99.90
22633;DHT22;11483;55.828;37.488;2023-09-19T05:02:51;12.80;99.90
22633;DHT22;11483;55.828;37.488;2023-09-19T05:05:17;12.80;99.90
22633;DHT22;11483;55.828;37.488;2023-09-19T05:07:43;12.90;99.90
22633;DHT22;11483;55.828;37.488;2023-09-19T05:10:11;13.00;99.90
22633;DHT22;11483;55.828;37.488;2023-09-19T05:12:38;13.00;99.90
22633;DHT22;11483;55.828;37.488;2023-09-19T05:15:04;13.10;99.90
22633;DHT22;11483;55.828;37.488;2023-09-19T05:17:32;13.30;99.90
22633;DHT22;11483;55.828;37.488;2023-09-19T05:19:58;13.40;99.90
22633;DHT22;11483;55.828;37.488;2023-09-19T05:22:26;13.50;99.90
22633;DHT22;11483;55.828;37.488;2023-09-19T05:24:52;13.50;99.90
22633;DHT22;11483;55.828;37.488;2023-09-19T05:27:18;13.50;99.90
22633;DHT22;11483;55.828;37.488;2023-09-19T05:29:46;13.50;99.90
22633;DHT22;11483;55.828;37.488;2023-09-19T05:32:12;13.50;99.90
22633;DHT22;11483;55.828;37.488;2023-09-19T05:34:38;13.50;99.90
22633;DHT22;11483;55.828;37.488;2023-09-19T05:37:04;13.50;99.90
22633;DHT22;11483;55.828;37.488;2023-09-19T05:39:32;13.50;99.90
22633;DHT22;11483;55.828;37.488;2023-09-19T05:41:58;13.50;99.90
22633;DHT22;11483;55.828;37.488;2023-09-19T05:44:25;13.50;99.90
22633;DHT22;11483;55.828;37.488;2023-09-19T05:46:51;13.50;99.90
22633;DHT22;11483;55.828;37.488;2023-09-19T05:49:17;13.50;99.90
22633;DHT22;11483;55.828;37.488;2023-09-19T05:51:43;13.50;99.90
22633;DHT22;11483;55.828;37.488;2023-09-19T05:54:09;13.50;99.90
22633;DHT22;11483;55.828;37.488;2023-09-19T05:56:36;13.60;99.90
22633;DHT22;11483;55.828;37.488;2023-09-19T05:59:02;13.60;99.90
22633;DHT22;11483;55.828;37.488;2023-09-19T06:01:29;13.80;99.90
22633;DHT22;11483;55.828;37.488;2023-09-19T06:03:58;13.90;99.90
22633;DHT22;11483;55.828;37.488;2023-09-19T06:06:25;14.10;99.90
22633;DHT22;11483;55.828;37.488;2023-09-19T06:08:51;14.30;99.90
22633;DHT22;11483;55.828;37.488;2023-09-19T06:11:17;14.50;99.90
22633;DHT22;11483;55.828;37.488;2023-09-19T06:13:46;14.60;99.90
22633;DHT22;11483;55.828;37.488;2023-09-19T06:16:12;14.60;99.90
22633;DHT22;11483;55.828;37.488;2023-09-19T06:18:38;14.80;99.90
22633;DHT22;11483;55.828;37.488;2023-09-19T06:21:04;14.80;99.90
22633;DHT22;11483;55.828;37.488;2023-09-19T06:23:33;14.90;99.90
22633;DHT22;11483;55.828;37.488;2023-09-19T06:25:59;14.90;99.90
22633;DHT22;11483;55.828;37.488;2023-09-19T06:28:25;15.00;99.90
22633;DHT22;11483;55.828;37.488;2023-09-19T06:30:54;15.20;99.90
22633;DHT22;11483;55.828;37.488;2023-09-19T06:33:20;15.40;99.90
22633;DHT22;11483;55.828;37.488;2023-09-19T06:35:47;15.60;99.90
22633;DHT22;11483;55.828;37.488;2023-09-19T06:38:13;15.90;99.90
22633;DHT22;11483;55.828;37.488;2023-09-19T06:40:41;16.30;99.90
22633;DHT22;11483;55.828;37.488;2023-09-19T06:43:10;16.50;99.90
22633;DHT22;11483;55.828;37.488;2023-09-19T06:45:36;16.90;99.90
22633;DHT22;11483;55.828;37.488;2023-09-19T06:48:02;17.30;99.90
22633;DHT22;11483;55.828;37.488;2023-09-19T06:50:28;17.40;99.90
22633;DHT22;11483;55.828;37.488;2023-09-19T06:52:56;17.50;99.90
22633;DHT22;11483;55.828;37.488;2023-09-19T06:55:25;17.40;99.90
22633;DHT22;11483;55.828;37.488;2023-09-19T06:57:54;17.30;99.90
22633;DHT22;11483;55.828;37.488;2023-09-19T07:00:20;17.10;99.90
22633;DHT22;11483;55.828;37.488;2023-09-19T07:02:59;17.30;99.90
22633;DHT22;11483;55.828;37.488;2023-09-19T07:05:33;17.70;99.90
22633;DHT22;11483;55.828;37.488;2023-09-19T07:07:59;18.00;99.90
22633;DHT22;11483;55.828;37.488;2023-09-19T07:10:29;18.10;99.90
22633;DHT22;11483;55.828;37.488;2023-09-19T07:12:57;18.20;99.90
22633;DHT22;11483;55.828;37.488;2023-09-19T07:15:24;18.50;99.90
22633;DHT22;11483;55.828;37.488;2023-09-19T07:17:54;18.80;99.90
22633;DHT22;11483;55.828;37.488;2023-09-19T07:20:22;18.90;99.90
22633;DHT22;11483;55.828;37.488;2023-09-19T07:22:49;18.80;99.90
22633;DHT22;11483;55.828;37.488;2023-09-19T07:25:16;18.70;99.90
22633;DHT22;11483;55.828;37.488;2023-09-19T07:27:42;18.70;99.90
22633;DHT22;11483;55.828;37.488;2023-09-19T07:30:09;18.50;99.90
22633;DHT22;11483;55.828;37.488;2023-09-19T07:32:35;18.40;99.90
22633;DHT22;11483;55.828;37.488;2023-09-19T07:35:06;18.60;99.90
22633;DHT22;11483;55.828;37.488;2023-09-19T07:37:33;18.70;99.90
22633;DHT22;11483;55.828;37.488;2023-09-19T07:40:08;18.70;99.90
22633;DHT22;11483;55.828;37.488;2023-09-19T07:42:36;18.70;99.90
22633;DHT22;11483;55.828;37.488;2023-09-19T07:45:05;18.90;99.90
22633;DHT22;11483;55.828;37.488;2023-09-19T07:47:31;19.00;99.90
22633;DHT22;11483;55.828;37.488;2023-09-19T07:49:59;19.30;99.90
22633;DHT22;11483;55.828;37.488;2023-09-19T07:52:26;19.60;99.90
22633;DHT22;11483;55.828;37.488;2023-09-19T07:54:53;19.90;99.90
22633;DHT22;11483;55.828;37.488;2023-09-19T07:57:19;20.00;99.90
22633;DHT22;11483;55.828;37.488;2023-09-19T07:59:45;20.20;99.90
22633;DHT22;11483;55.828;37.488;2023-09-19T08:02:11;20.10;99.90
22633;DHT22;11483;55.828;37.488;2023-09-19T08:04:44;20.10;99.90
22633;DHT22;11483;55.828;37.488;2023-09-19T08:07:12;20.10;99.90
22633;DHT22;11483;55.828;37.488;2023-09-19T08:09:41;19.90;99.90
22633;DHT22;11483;55.828;37.488;2023-09-19T08:12:12;19.60;99.90
22633;DHT22;11483;55.828;37.488;2023-09-19T08:14:38;19.30;99.90
22633;DHT22;11483;55.828;37.488;2023-09-19T08:17:07;19.00;99.90
22633;DHT22;11483;55.828;37.488;2023-09-19T08:19:34;18.70;99.90
22633;DHT22;11483;55.828;37.488;2023-09-19T08:22:00;18.50;99.90
22633;DHT22;11483;55.828;37.488;2023-09-19T08:24:30;18.30;99.90
22633;DHT22;11483;55.828;37.488;2023-09-19T08:26:57;18.20;99.90
22633;DHT22;11483;55.828;37.488;2023-09-19T08:29:24;18.10;99.90
22633;DHT22;11483;55.828;37.488;2023-09-19T08:31:59;17.90;99.90
22633;DHT22;11483;55.828;37.488;2023-09-19T08:34:25;17.80;99.90
22633;DHT22;11483;55.828;37.488;2023-09-19T08:36:52;17.70;99.90
22633;DHT22;11483;55.828;37.488;2023-09-19T08:39:22;17.60;99.90
22633;DHT22;11483;55.828;37.488;2023-09-19T08:41:48;17.50;99.90
22633;DHT22;11483;55.828;37.488;2023-09-19T08:44:15;17.40;99.90
22633;DHT22;11483;55.828;37.488;2023-09-19T08:46:42;17.40;99.90
22633;DHT22;11483;55.828;37.488;2023-09-19T08:49:24;17.30;99.90
22633;DHT22;11483;55.828;37.488;2023-09-19T08:52:05;17.40;99.90
22633;DHT22;11483;55.828;37.488;2023-09-19T08:54:37;17.50;99.90
22633;DHT22;11483;55.828;37.488;2023-09-19T08:57:07;17.60;99.90
22633;DHT22;11483;55.828;37.488;2023-09-19T08:59:41;17.70;99.90
22633;DHT22;11483;55.828;37.488;2023-09-19T09:02:12;17.70;99.90
22633;DHT22;11483;55.828;37.488;2023-09-19T09:04:41;17.90;99.90
22633;DHT22;11483;55.828;37.488;2023-09-19T09:07:12;18.20;99.90
22633;DHT22;11483;55.828;37.488;2023-09-19T09:09:44;18.50;99.90
22633;DHT22;11483;55.828;37.488;2023-09-19T09:12:15;18.50;99.90
22633;DHT22;11483;55.828;37.488;2023-09-19T09:14:45;18.50;99.90
22633;DHT22;11483;55.828;37.488;2023-09-19T09:17:18;18.50;99.90
22633;DHT22;11483;55.828;37.488;2023-09-19T09:19:46;18.60;99.90
22633;DHT22;11483;55.828;37.488;2023-09-19T09:22:13;18.70;99.90
22633;DHT22;11483;55.828;37.488;2023-09-19T09:24:59;18.60;99.90
22633;DHT22;11483;55.828;37.488;2023-09-19T09:27:30;18.70;99.90
22633;DHT22;11483;55.828;37.488;2023-09-19T09:29:57;18.80;99.90
22633;DHT22;11483;55.828;37.488;2023-09-19T09:32:30;18.90;99.90
22633;DHT22;11483;55.828;37.488;2023-09-19T09:35:01;19.10;99.90
22633;DHT22;11483;55.828;37.488;2023-09-19T09:37:30;19.50;99.90
22633;DHT22;11483;55.828;37.488;2023-09-19T09:40:01;19.70;99.90
22633;DHT22;11483;55.828;37.488;2023-09-19T09:42:40;20.00;99.90
22633;DHT22;11483;55.828;37.488;2023-09-19T09:45:14;20.50;99.90
22633;DHT22;11483;55.828;37.488;2023-09-19T09:47:41;21.70;99.90
22633;DHT22;11483;55.828;37.488;2023-09-19T09:50:08;23.40;99.90
22633;DHT22;11483;55.828;37.488;2023-09-19T09:52:46;24.80;99.90
22633;DHT22;11483;55.828;37.488;2023-09-19T09:55:12;24.50;99.90
22633;DHT22;11483;55.828;37.488;2023-09-19T09:57:38;23.80;99.90
22633;DHT22;11483;55.828;37.488;2023-09-19T10:00:07;23.30;99.90
22633;DHT22;11483;55.828;37.488;2023-09-19T10:02:38;23.10;99.90
22633;DHT22;11483;55.828;37.488;2023-09-19T10:05:34;23.00;99.90
22633;DHT22;11483;55.828;37.488;2023-09-19T10:08:12;23.10;99.90
22633;DHT22;11483;55.828;37.488;2023-09-19T10:10:39;23.60;99.90
22633;DHT22;11483;55.828;37.488;2023-09-19T10:13:10;24.20;99.90
22633;DHT22;11483;55.828;37.488;2023-09-19T10:15:39;24.40;99.90
22633;DHT22;11483;55.828;37.488;2023-09-19T10:18:11;25.30;99.90
22633;DHT22;11483;55.828;37.488;2023-09-19T10:20:44;26.80;99.90
22633;DHT22;11483;55.828;37.488;2023-09-19T10:23:11;27.90;99.90
22633;DHT22;11483;55.828;37.488;2023-09-19T10:25:38;27.90;99.90
22633;DHT22;11483;55.828;37.488;2023-09-19T10:28:09;28.50;99.90
22633;DHT22;11483;55.828;37.488;2023-09-19T10:33:17;30.00;99.90
22633;DHT22;11483;55.828;37.488;2023-09-19T10:35:47;30.50;98.80
22633;DHT22;11483;55.828;37.488;2023-09-19T10:38:17;30.90;97.20
22633;DHT22;11483;55.828;37.488;2023-09-19T10:40:51;31.60;93.80
22633;DHT22;11483;55.828;37.488;2023-09-19T10:43:18;31.40;92.10
22633;DHT22;11483;55.828;37.488;2023-09-19T10:45:49;31.30;91.50
22633;DHT22;11483;55.828;37.488;2023-09-19T10:48:17;31.10;90.90
22633;DHT22;11483;55.828;37.488;2023-09-19T10:51:01;31.50;91.30
22633;DHT22;11483;55.828;37.488;2023-09-19T10:56:29;31.90;88.00
22633;DHT22;11483;55.828;37.488;2023-09-19T10:59:11;31.50;87.40
22633;DHT22;11483;55.828;37.488;2023-09-19T11:01:57;31.60;86.80
22633;DHT22;11483;55.828;37.488;2023-09-19T11:04:29;31.50;86.20
22633;DHT22;11483;55.828;37.488;2023-09-19T11:07:14;31.60;86.90
22633;DHT22;11483;55.828;37.488;2023-09-19T11:09:54;32.40;84.90
22633;DHT22;11483;55.828;37.488;2023-09-19T11:26:48;33.80;77.70
22633;DHT22;11483;55.828;37.488;2023-09-19T11:29:30;34.20;76.00
22633;DHT22;11483;55.828;37.488;2023-09-19T11:31:57;33.90;74.90
22633;DHT22;11483;55.828;37.488;2023-09-19T11:39:38;35.00;73.20
22633;DHT22;11483;55.828;37.488;2023-09-19T11:45:07;34.10;72.40
22633;DHT22;11483;55.828;37.488;2023-09-19T11:47:56;33.80;73.80
22633;DHT22;11483;55.828;37.488;2023-09-19T11:50:24;33.90;73.80
22633;DHT22;11483;55.828;37.488;2023-09-19T11:52:52;34.00;73.30
22633;DHT22;11483;55.828;37.488;2023-09-19T11:55:21;33.70;73.10
22633;DHT22;11483;55.828;37.488;2023-09-19T11:57:48;33.80;73.10
22633;DHT22;11483;55.828;37.488;2023-09-19T12:00:19;33.60;73.00
22633;DHT22;11483;55.828;37.488;2023-09-19T12:02:47;33.40;74.00
22633;DHT22;11483;55.828;37.488;2023-09-19T12:05:15;33.50;73.60
22633;DHT22;11483;55.828;37.488;2023-09-19T12:07:44;33.50;74.20
22633;DHT22;11483;55.828;37.488;2023-09-19T12:10:13;33.70;73.90
22633;DHT22;11483;55.828;37.488;2023-09-19T12:12:47;33.30;73.10
22633;DHT22;11483;55.828;37.488;2023-09-19T12:15:23;32.50;75.00
22633;DHT22;11483;55.828;37.488;2023-09-19T12:17:54;32.30;76.10
22633;DHT22;11483;55.828;37.488;2023-09-19T12:20:20;32.40;75.50
22633;DHT22;11483;55.828;37.488;2023-09-19T12:22:47;32.30;75.60
22633;DHT22;11483;55.828;37.488;2023-09-19T12:25:14;32.10;76.60
22633;DHT22;11483;55.828;37.488;2023-09-19T12:27:46;31.70;76.40
22633;DHT22;11483;55.828;37.488;2023-09-19T12:30:13;31.60;77.90
22633;DHT22;11483;55.828;37.488;2023-09-19T12:32:40;32.20;77.20
22633;DHT22;11483;55.828;37.488;2023-09-19T12:35:08;32.20;76.00
22633;DHT22;11483;55.828;37.488;2023-09-19T12:37:43;32.00;76.40
22633;DHT22;11483;55.828;37.488;2023-09-19T12:40:14;32.10;77.80
22633;DHT22;11483;55.828;37.488;2023-09-19T12:42:44;32.60;76.30
22633;DHT22;11483;55.828;37.488;2023-09-19T12:45:11;33.30;76.00
22633;DHT22;11483;55.828;37.488;2023-09-19T12:47:39;33.80;74.00
22633;DHT22;11483;55.828;37.488;2023-09-19T12:50:12;33.80;73.10
22633;DHT22;11483;55.828;37.488;2023-09-19T12:52:52;33.70;73.70
22633;DHT22;11483;55.828;37.488;2023-09-19T12:55:30;33.30;73.60
22633;DHT22;11483;55.828;37.488;2023-09-19T12:58:07;33.20;74.40
22633;DHT22;11483;55.828;37.488;2023-09-19T13:00:39;32.90;74.20
22633;DHT22;11483;55.828;37.488;2023-09-19T13:03:28;32.50;75.10
22633;DHT22;11483;55.828;37.488;2023-09-19T13:05:59;32.60;75.90
22633;DHT22;11483;55.828;37.488;2023-09-19T13:08:26;32.40;76.10
22633;DHT22;11483;55.828;37.488;2023-09-19T13:11:16;32.10;75.60
22633;DHT22;11483;55.828;37.488;2023-09-19T13:14:26;30.90;76.80
22633;DHT22;11483;55.828;37.488;2023-09-19T13:17:07;29.80;79.10
22633;DHT22;11483;55.828;37.488;2023-09-19T13:19:48;29.50;81.90
22633;DHT22;11483;55.828;37.488;2023-09-19T13:22:44;29.60;81.80
22633;DHT22;11483;55.828;37.488;2023-09-19T13:25:21;29.60;82.40
22633;DHT22;11483;55.828;37.488;2023-09-19T13:27:48;29.90;81.90
22633;DHT22;11483;55.828;37.488;2023-09-19T13:30:17;30.00;82.00
22633;DHT22;11483;55.828;37.488;2023-09-19T13:32:43;30.40;82.20
22633;DHT22;11483;55.828;37.488;2023-09-19T13:35:10;30.70;81.00
22633;DHT22;11483;55.828;37.488;2023-09-19T13:37:38;30.80;80.90
22633;DHT22;11483;55.828;37.488;2023-09-19T13:40:12;30.90;80.40
22633;DHT22;11483;55.828;37.488;2023-09-19T13:42:38;30.30;80.40
22633;DHT22;11483;55.828;37.488;2023-09-19T13:45:04;29.80;80.90
22633;DHT22;11483;55.828;37.488;2023-09-19T13:47:31;29.40;83.00
22633;DHT22;11483;55.828;37.488;2023-09-19T13:49:58;29.40;82.60
22633;DHT22;11483;55.828;37.488;2023-09-19T13:52:24;29.60;84.50
22633;DHT22;11483;55.828;37.488;2023-09-19T13:54:54;29.90;83.70
22633;DHT22;11483;55.828;37.488;2023-09-19T13:57:25;30.30;83.40
22633;DHT22;11483;55.828;37.488;2023-09-19T13:59:52;30.90;81.70
22633;DHT22;11483;55.828;37.488;2023-09-19T14:02:20;31.70;81.60
22633;DHT22;11483;55.828;37.488;2023-09-19T14:04:49;32.20;78.60
22633;DHT22;11483;55.828;37.488;2023-09-19T14:07:15;32.10;77.70
22633;DHT22;11483;55.828;37.488;2023-09-19T14:09:43;31.80;76.20
22633;DHT22;11483;55.828;37.488;2023-09-19T14:12:09;31.10;75.90
22633;DHT22;11483;55.828;37.488;2023-09-19T14:14:35;30.60;77.30
22633;DHT22;11483;55.828;37.488;2023-09-19T14:17:03;30.10;78.20
22633;DHT22;11483;55.828;37.488;2023-09-19T14:19:30;29.60;79.60
22633;DHT22;11483;55.828;37.488;2023-09-19T14:21:56;29.10;80.40
22633;DHT22;11483;55.828;37.488;2023-09-19T14:24:22;28.90;78.90
22633;DHT22;11483;55.828;37.488;2023-09-19T14:26:49;28.60;78.10
22633;DHT22;11483;55.828;37.488;2023-09-19T14:29:15;28.30;78.40
22633;DHT22;11483;55.828;37.488;2023-09-19T14:31:42;28.20;79.10
22633;DHT22;11483;55.828;37.488;2023-09-19T14:34:08;28.20;79.00
22633;DHT22;11483;55.828;37.488;2023-09-19T14:36:38;28.20;80.00
22633;DHT22;11483;55.828;37.488;2023-09-19T14:39:06;28.20;79.80
22633;DHT22;11483;55.828;37.488;2023-09-19T14:41:34;28.20;79.00
22633;DHT22;11483;55.828;37.488;2023-09-19T14:44:01;28.10;79.90
22633;DHT22;11483;55.828;37.488;2023-09-19T14:46:27;28.00;79.60
22633;DHT22;11483;55.828;37.488;2023-09-19T14:48:54;28.00;80.20
22633;DHT22;11483;55.828;37.488;2023-09-19T14:51:25;27.90;79.60
22633;DHT22;11483;55.828;37.488;2023-09-19T14:53:50;27.80;79.30
22633;DHT22;11483;55.828;37.488;2023-09-19T14:56:17;27.70;79.70
22633;DHT22;11483;55.828;37.488;2023-09-19T14:58:44;27.60;79.50
22633;DHT22;11483;55.828;37.488;2023-09-19T15:01:11;27.40;79.20
22633;DHT22;11483;55.828;37.488;2023-09-19T15:03:38;27.20;79.40
22633;DHT22;11483;55.828;37.488;2023-09-19T15:06:08;27.00;79.70
22633;DHT22;11483;55.828;37.488;2023-09-19T15:08:36;26.70;80.30
22633;DHT22;11483;55.828;37.488;2023-09-19T15:11:07;26.50;80.60
22633;DHT22;11483;55.828;37.488;2023-09-19T15:13:33;26.30;81.10
22633;DHT22;11483;55.828;37.488;2023-09-19T15:16:06;26.10;82.30
22633;DHT22;11483;55.828;37.488;2023-09-19T15:18:40;25.90;82.50
22633;DHT22;11483;55.828;37.488;2023-09-19T15:21:08;25.70;83.90
22633;DHT22;11483;55.828;37.488;2023-09-19T15:23:36;25.40;83.70
22633;DHT22;11483;55.828;37.488;2023-09-19T15:26:07;25.20;82.80
22633;DHT22;11483;55.828;37.488;2023-09-19T15:28:37;24.90;83.50
22633;DHT22;11483;55.828;37.488;2023-09-19T15:31:09;24.60;84.80
22633;DHT22;11483;55.828;37.488;2023-09-19T15:33:35;24.30;85.60
22633;DHT22;11483;55.828;37.488;2023-09-19T15:36:05;24.00;86.50
22633;DHT22;11483;55.828;37.488;2023-09-19T15:38:55;23.80;88.20
22633;DHT22;11483;55.828;37.488;2023-09-19T15:41:21;23.50;90.00
22633;DHT22;11483;55.828;37.488;2023-09-19T15:43:47;23.30;90.60
22633;DHT22;11483;55.828;37.488;2023-09-19T15:46:13;23.10;91.40
22633;DHT22;11483;55.828;37.488;2023-09-19T15:48:41;22.90;92.00
22633;DHT22;11483;55.828;37.488;2023-09-19T15:51:06;22.70;92.50
22633;DHT22;11483;55.828;37.488;2023-09-19T15:53:59;22.60;92.80
22633;DHT22;11483;55.828;37.488;2023-09-19T15:56:28;22.40;93.30
22633;DHT22;11483;55.828;37.488;2023-09-19T15:59:00;22.30;93.50
22633;DHT22;11483;55.828;37.488;2023-09-19T16:01:26;22.30;93.80
22633;DHT22;11483;55.828;37.488;2023-09-19T16:03:54;22.20;93.70
22633;DHT22;11483;55.828;37.488;2023-09-19T16:06:25;22.10;94.00
22633;DHT22;11483;55.828;37.488;2023-09-19T16:08:53;22.10;94.30